sensor_id;sensor_type;location;lat;lon;timestamp;pressure;altitude;pressure_sealevel;temperature;humidity
64402;BME280;50724;42.376;23.768;2023-10-19T00:01:30;93287.94;;;4.38;100.00
64402;BME280;50724;42.376;23.768;2023-10-19T00:04:34;93282.94;;;4.46;100.00
64402;BME280;50724;42.376;23.768;2023-10-19T00:07:38;93285.13;;;4.41;100.00
64402;BME280;50724;42.376;23.768;2023-10-19T00:10:40;93279.50;;;4.36;100.00
64402;BME280;50724;42.376;23.768;2023-10-19T00:13:43;93274.88;;;4.39;100.00
64402;BME280;50724;42.376;23.768;2023-10-19T00:16:52;93266.84;;;4.63;100.00
64402;BME280;50724;42.376;23.768;2023-10-19T00:20:00;93263.19;;;4.45;100.00
64402;BME280;50724;42.376;23.768;2023-10-19T00:23:30;93260.38;;;4.48;100.00
64402;BME280;50724;42.376;23.768;2023-10-19T00:26:40;93249.66;;;4.41;100.00
64402;BME280;50724;42.376;23.768;2023-10-19T00:29:41;93258.50;;;4.39;100.00
64402;BME280;50724;42.376;23.768;2023-10-19T00:32:48;93255.19;;;4.48;100.00
64402;BME280;50724;42.376;23.768;2023-10-19T00:35:48;93261.06;;;4.50;100.00
64402;BME280;50724;42.376;23.768;2023-10-19T00:39:07;93252.91;;;4.54;100.00
64402;BME280;50724;42.376;23.768;2023-10-19T00:42:16;93246.13;;;4.63;100.00
64402;BME280;50724;42.376;23.768;2023-10-19T00:45:20;93251.50;;;4.50;100.00
64402;BME280;50724;42.376;23.768;2023-10-19T00:48:27;93251.69;;;4.58;100.00
64402;BME280;50724;42.376;23.768;2023-10-19T00:51:35;93252.44;;;4.70;100.00
64402;BME280;50724;42.376;23.768;2023-10-19T00:54:38;93251.81;;;4.77;100.00
64402;BME280;50724;42.376;23.768;2023-10-19T00:57:51;93254.69;;;4.84;100.00
64402;BME280;50724;42.376;23.768;2023-10-19T01:00:52;93250.91;;;4.88;100.00
64402;BME280;50724;42.376;23.768;2023-10-19T01:03:55;93250.22;;;4.86;100.00
64402;BME280;50724;42.376;23.768;2023-10-19T01:06:58;93242.81;;;4.81;100.00
64402;BME280;50724;42.376;23.768;2023-10-19T01:10:13;93246.00;;;4.85;100.00
64402;BME280;50724;42.376;23.768;2023-10-19T01:13:28;93239.75;;;4.88;100.00
64402;BME280;50724;42.376;23.768;2023-10-19T01:16:29;93235.31;;;4.78;100.00
64402;BME280;50724;42.376;23.768;2023-10-19T01:19:29;93234.75;;;4.75;100.00
64402;BME280;50724;42.376;23.768;2023-10-19T01:22:31;93234.94;;;4.62;100.00
64402;BME280;50724;42.376;23.768;2023-10-19T01:25:32;93233.44;;;4.60;100.00
64402;BME280;50724;42.376;23.768;2023-10-19T01:28:36;93231.22;;;4.55;100.00
64402;BME280;50724;42.376;23.768;2023-10-19T01:31:43;93223.72;;;4.52;100.00
64402;BME280;50724;42.376;23.768;2023-10-19T01:34:56;93226.19;;;4.54;100.00
64402;BME280;50724;42.376;23.768;2023-10-19T01:37:56;93234.25;;;4.60;100.00
64402;BME280;50724;42.376;23.768;2023-10-19T01:41:01;93232.03;;;4.76;100.00
64402;BME280;50724;42.376;23.768;2023-10-19T01:44:28;93241.09;;;4.61;100.00
64402;BME280;50724;42.376;23.768;2023-10-19T01:47:28;93237.38;;;4.54;100.00
64402;BME280;50724;42.376;23.768;2023-10-19T01:50:29;93233.75;;;4.46;100.00
64402;BME280;50724;42.376;23.768;2023-10-19T01:53:29;93230.91;;;4.49;100.00
64402;BME280;50724;42.376;23.768;2023-10-19T01:56:30;93227.69;;;4.56;100.00
64402;BME280;50724;42.376;23.768;2023-10-19T01:59:30;93223.22;;;4.38;100.00
64402;BME280;50724;42.376;23.768;2023-10-19T02:02:31;93217.53;;;4.23;100.00
64402;BME280;50724;42.376;23.768;2023-10-19T02:05:32;93224.78;;;4.29;100.00
64402;BME280;50724;42.376;23.768;2023-10-19T02:08:39;93222.97;;;4.41;100.00
64402;BME280;50724;42.376;23.768;2023-10-19T02:11:40;93240.00;;;4.43;100.00
64402;BME280;50724;42.376;23.768;2023-10-19T02:14:46;93234.97;;;4.42;100.00
64402;BME280;50724;42.376;23.768;2023-10-19T02:17:46;93228.16;;;4.41;100.00
64402;BME280;50724;42.376;23.768;2023-10-19T02:20:47;93237.63;;;4.51;100.00
64402;BME280;50724;42.376;23.768;2023-10-19T02:23:49;93228.47;;;4.47;100.00
64402;BME280;50724;42.376;23.768;2023-10-19T02:26:55;93222.69;;;4.64;100.00
64402;BME280;50724;42.376;23.768;2023-10-19T02:29:56;93227.63;;;4.47;100.00
64402;BME280;50724;42.376;23.768;2023-10-19T02:32:56;93225.69;;;4.39;100.00
64402;BME280;50724;42.376;23.768;2023-10-19T02:35:57;93226.63;;;4.59;100.00
64402;BME280;50724;42.376;23.768;2023-10-19T02:38:59;93216.19;;;4.70;100.00
64402;BME280;50724;42.376;23.768;2023-10-19T02:42:00;93220.28;;;4.72;100.00
64402;BME280;50724;42.376;23.768;2023-10-19T02:45:01;93221.03;;;4.84;100.00
64402;BME280;50724;42.376;23.768;2023-10-19T02:48:04;93222.00;;;4.93;100.00
64402;BME280;50724;42.376;23.768;2023-10-19T02:51:05;93227.16;;;5.13;100.00
64402;BME280;50724;42.376;23.768;2023-10-19T02:54:12;93225.91;;;5.08;100.00
64402;BME280;50724;42.376;23.768;2023-10-19T02:57:28;93234.53;;;5.18;100.00
64402;BME280;50724;42.376;23.768;2023-10-19T03:00:31;93235.91;;;5.22;100.00
64402;BME280;50724;42.376;23.768;2023-10-19T03:03:34;93234.56;;;5.27;100.00
64402;BME280;50724;42.376;23.768;2023-10-19T03:06:35;93239.09;;;5.35;100.00
64402;BME280;50724;42.376;23.768;2023-10-19T03:09:36;93229.94;;;5.31;100.00
64402;BME280;50724;42.376;23.768;2023-10-19T03:12:36;93229.31;;;5.48;100.00
64402;BME280;50724;42.376;23.768;2023-10-19T03:15:36;93226.84;;;5.56;100.00
64402;BME280;50724;42.376;23.768;2023-10-19T03:18:43;93229.03;;;5.51;100.00
64402;BME280;50724;42.376;23.768;2023-10-19T03:21:43;93233.00;;;5.55;100.00
64402;BME280;50724;42.376;23.768;2023-10-19T03:24:46;93235.09;;;5.71;100.00
64402;BME280;50724;42.376;23.768;2023-10-19T03:27:47;93237.66;;;5.61;100.00
64402;BME280;50724;42.376;23.768;2023-10-19T03:30:47;93232.44;;;5.51;100.00
64402;BME280;50724;42.376;23.768;2023-10-19T03:33:49;93226.81;;;5.46;100.00
64402;BME280;50724;42.376;23.768;2023-10-19T03:36:54;93227.09;;;5.34;100.00
64402;BME280;50724;42.376;23.768;2023-10-19T03:39:55;93221.25;;;5.61;100.00
64402;BME280;50724;42.376;23.768;2023-10-19T03:42:58;93222.34;;;5.58;100.00
64402;BME280;50724;42.376;23.768;2023-10-19T03:45:59;93225.72;;;5.39;100.00
64402;BME280;50724;42.376;23.768;2023-10-19T03:49:04;93216.03;;;5.32;100.00
64402;BME280;50724;42.376;23.768;2023-10-19T03:52:11;93221.31;;;5.30;100.00
64402;BME280;50724;42.376;23.768;2023-10-19T03:55:11;93219.66;;;5.20;100.00
64402;BME280;50724;42.376;23.768;2023-10-19T03:58:16;93217.03;;;5.10;100.00
64402;BME280;50724;42.376;23.768;2023-10-19T04:01:17;93211.56;;;5.04;100.00
64402;BME280;50724;42.376;23.768;2023-10-19T04:04:19;93213.03;;;4.97;100.00
64402;BME280;50724;42.376;23.768;2023-10-19T04:07:21;93198.44;;;4.96;100.00
64402;BME280;50724;42.376;23.768;2023-10-19T04:10:22;93207.47;;;4.71;100.00
64402;BME280;50724;42.376;23.768;2023-10-19T04:13:34;93202.88;;;4.54;100.00
64402;BME280;50724;42.376;23.768;2023-10-19T04:16:38;93206.88;;;4.37;100.00
64402;BME280;50724;42.376;23.768;2023-10-19T04:19:43;93203.13;;;4.51;100.00
64402;BME280;50724;42.376;23.768;2023-10-19T04:22:48;93194.81;;;4.47;100.00
64402;BME280;50724;42.376;23.768;2023-10-19T04:25:50;93191.09;;;4.40;100.00
64402;BME280;50724;42.376;23.768;2023-10-19T04:28:50;93189.13;;;4.33;100.00
64402;BME280;50724;42.376;23.768;2023-10-19T04:31:50;93188.81;;;4.26;100.00
64402;BME280;50724;42.376;23.768;2023-10-19T04:34:54;93191.09;;;4.20;100.00
64402;BME280;50724;42.376;23.768;2023-10-19T04:37:55;93193.31;;;4.24;100.00
64402;BME280;50724;42.376;23.768;2023-10-19T04:41:06;93187.16;;;4.25;100.00
64402;BME280;50724;42.376;23.768;2023-10-19T04:44:07;93192.66;;;4.32;100.00
64402;BME280;50724;42.376;23.768;2023-10-19T04:47:10;93185.66;;;4.23;100.00
64402;BME280;50724;42.376;23.768;2023-10-19T04:50:12;93190.25;;;4.40;100.00
64402;BME280;50724;42.376;23.768;2023-10-19T04:53:13;93195.44;;;4.40;100.00
64402;BME280;50724;42.376;23.768;2023-10-19T04:56:13;93198.84;;;4.20;100.00
64402;BME280;50724;42.376;23.768;2023-10-19T04:59:14;93199.47;;;4.12;100.00
64402;BME280;50724;42.376;23.768;2023-10-19T05:02:14;93200.47;;;4.21;100.00
64402;BME280;50724;42.376;23.768;2023-10-19T05:05:15;93209.38;;;4.28;100.00
64402;BME280;50724;42.376;23.768;2023-10-19T05:08:17;93204.84;;;4.41;100.00
64402;BME280;50724;42.376;23.768;2023-10-19T05:11:17;93205.59;;;4.52;100.00
64402;BME280;50724;42.376;23.768;2023-10-19T05:14:18;93195.25;;;4.52;100.00
64402;BME280;50724;42.376;23.768;2023-10-19T05:17:20;93202.25;;;4.41;100.00
64402;BME280;50724;42.376;23.768;2023-10-19T05:20:21;93202.13;;;4.42;100.00
64402;BME280;50724;42.376;23.768;2023-10-19T05:23:25;93207.81;;;4.57;100.00
64402;BME280;50724;42.376;23.768;2023-10-19T05:26:27;93211.47;;;4.54;100.00
64402;BME280;50724;42.376;23.768;2023-10-19T05:29:27;93205.91;;;4.59;100.00
64402;BME280;50724;42.376;23.768;2023-10-19T05:32:28;93205.97;;;4.68;100.00
64402;BME280;50724;42.376;23.768;2023-10-19T05:35:30;93215.06;;;4.93;100.00
64402;BME280;50724;42.376;23.768;2023-10-19T05:38:39;93219.38;;;5.23;100.00
64402;BME280;50724;42.376;23.768;2023-10-19T05:41:39;93222.22;;;5.50;100.00
64402;BME280;50724;42.376;23.768;2023-10-19T05:44:40;93221.97;;;5.63;100.00
64402;BME280;50724;42.376;23.768;2023-10-19T05:47:40;93225.25;;;5.65;100.00
64402;BME280;50724;42.376;23.768;2023-10-19T05:50:41;93224.91;;;5.88;100.00
64402;BME280;50724;42.376;23.768;2023-10-19T05:53:43;93224.38;;;6.23;100.00
64402;BME280;50724;42.376;23.768;2023-10-19T05:56:44;93223.34;;;6.72;100.00
64402;BME280;50724;42.376;23.768;2023-10-19T05:59:46;93222.78;;;7.24;100.00
64402;BME280;50724;42.376;23.768;2023-10-19T06:02:48;93221.72;;;7.44;100.00
64402;BME280;50724;42.376;23.768;2023-10-19T06:05:49;93226.53;;;7.67;100.00
64402;BME280;50724;42.376;23.768;2023-10-19T06:08:58;93226.44;;;7.76;100.00
64402;BME280;50724;42.376;23.768;2023-10-19T06:12:04;93230.53;;;8.06;100.00
64402;BME280;50724;42.376;23.768;2023-10-19T06:15:08;93225.31;;;8.23;100.00
64402;BME280;50724;42.376;23.768;2023-10-19T06:18:11;93230.13;;;8.18;100.00
64402;BME280;50724;42.376;23.768;2023-10-19T06:21:11;93226.56;;;8.19;100.00
64402;BME280;50724;42.376;23.768;2023-10-19T06:24:12;93225.03;;;8.26;100.00
64402;BME280;50724;42.376;23.768;2023-10-19T06:27:14;93225.63;;;8.20;100.00
64402;BME280;50724;42.376;23.768;2023-10-19T06:30:16;93228.84;;;8.32;100.00
64402;BME280;50724;42.376;23.768;2023-10-19T06:33:21;93232.72;;;8.46;100.00
64402;BME280;50724;42.376;23.768;2023-10-19T06:36:23;93230.50;;;8.76;100.00
64402;BME280;50724;42.376;23.768;2023-10-19T06:39:23;93232.00;;;9.05;100.00
64402;BME280;50724;42.376;23.768;2023-10-19T06:42:24;93227.47;;;9.15;100.00
64402;BME280;50724;42.376;23.768;2023-10-19T06:45:25;93236.22;;;9.31;100.00
64402;BME280;50724;42.376;23.768;2023-10-19T06:48:29;93228.50;;;9.55;100.00
64402;BME280;50724;42.376;23.768;2023-10-19T06:51:29;93227.72;;;9.63;100.00
64402;BME280;50724;42.376;23.768;2023-10-19T06:54:31;93228.09;;;9.76;100.00
64402;BME280;50724;42.376;23.768;2023-10-19T06:57:32;93239.59;;;9.91;100.00
64402;BME280;50724;42.376;23.768;2023-10-19T07:00:34;93241.97;;;10.18;98.32
64402;BME280;50724;42.376;23.768;2023-10-19T07:03:43;93244.94;;;10.40;95.93
64402;BME280;50724;42.376;23.768;2023-10-19T07:06:44;93236.44;;;10.38;93.37
64402;BME280;50724;42.376;23.768;2023-10-19T07:09:45;93242.97;;;10.42;91.90
64402;BME280;50724;42.376;23.768;2023-10-19T07:12:47;93235.63;;;10.53;91.25
64402;BME280;50724;42.376;23.768;2023-10-19T07:15:48;93230.75;;;10.50;91.72
64402;BME280;50724;42.376;23.768;2023-10-19T07:19:10;93227.47;;;10.72;89.83
64402;BME280;50724;42.376;23.768;2023-10-19T07:26:08;93231.72;;;10.65;91.19
64402;BME280;50724;42.376;23.768;2023-10-19T07:29:09;93222.56;;;10.69;89.96
64402;BME280;50724;42.376;23.768;2023-10-19T07:32:10;93221.59;;;10.94;90.57
64402;BME280;50724;42.376;23.768;2023-10-19T07:35:16;93221.38;;;11.12;90.16
64402;BME280;50724;42.376;23.768;2023-10-19T07:38:17;93224.59;;;11.30;90.72
64402;BME280;50724;42.376;23.768;2023-10-19T07:41:17;93206.78;;;11.26;87.75
64402;BME280;50724;42.376;23.768;2023-10-19T07:44:18;93221.84;;;11.24;89.69
64402;BME280;50724;42.376;23.768;2023-10-19T07:47:18;93210.44;;;11.09;91.13
64402;BME280;50724;42.376;23.768;2023-10-19T07:50:19;93201.59;;;11.10;92.03
64402;BME280;50724;42.376;23.768;2023-10-19T07:53:19;93198.59;;;11.29;91.22
64402;BME280;50724;42.376;23.768;2023-10-19T07:56:21;93196.50;;;11.16;91.68
64402;BME280;50724;42.376;23.768;2023-10-19T07:59:23;93205.31;;;11.31;91.88
64402;BME280;50724;42.376;23.768;2023-10-19T08:02:24;93218.88;;;11.43;87.58
64402;BME280;50724;42.376;23.768;2023-10-19T08:05:25;93210.13;;;11.58;88.95
64402;BME280;50724;42.376;23.768;2023-10-19T08:08:26;93200.94;;;11.79;85.53
64402;BME280;50724;42.376;23.768;2023-10-19T08:11:33;93202.97;;;11.44;85.68
64402;BME280;50724;42.376;23.768;2023-10-19T08:14:34;93202.50;;;11.41;86.35
64402;BME280;50724;42.376;23.768;2023-10-19T08:17:35;93188.13;;;11.37;86.54
64402;BME280;50724;42.376;23.768;2023-10-19T08:20:44;93188.31;;;11.27;88.32
64402;BME280;50724;42.376;23.768;2023-10-19T08:23:49;93200.78;;;12.03;87.28
64402;BME280;50724;42.376;23.768;2023-10-19T08:26:49;93197.69;;;11.99;84.44
64402;BME280;50724;42.376;23.768;2023-10-19T08:29:51;93197.44;;;12.17;82.78
64402;BME280;50724;42.376;23.768;2023-10-19T08:32:51;93191.38;;;11.86;81.79
64402;BME280;50724;42.376;23.768;2023-10-19T08:35:53;93197.19;;;11.65;84.58
64402;BME280;50724;42.376;23.768;2023-10-19T08:38:54;93207.25;;;11.84;85.35
64402;BME280;50724;42.376;23.768;2023-10-19T08:41:54;93209.22;;;12.21;83.63
64402;BME280;50724;42.376;23.768;2023-10-19T08:44:56;93212.38;;;12.16;82.40
64402;BME280;50724;42.376;23.768;2023-10-19T08:47:58;93215.22;;;11.52;83.87
64402;BME280;50724;42.376;23.768;2023-10-19T08:51:00;93219.50;;;11.53;84.78
64402;BME280;50724;42.376;23.768;2023-10-19T08:54:02;93218.22;;;11.41;83.43
64402;BME280;50724;42.376;23.768;2023-10-19T08:57:05;93216.47;;;11.17;83.63
64402;BME280;50724;42.376;23.768;2023-10-19T09:00:06;93216.06;;;11.52;83.27
64402;BME280;50724;42.376;23.768;2023-10-19T09:03:07;93218.88;;;11.43;81.42
64402;BME280;50724;42.376;23.768;2023-10-19T09:06:11;93211.47;;;11.54;81.05
64402;BME280;50724;42.376;23.768;2023-10-19T09:09:13;93214.22;;;11.61;80.42
64402;BME280;50724;42.376;23.768;2023-10-19T09:12:25;93224.41;;;11.48;78.50
64402;BME280;50724;42.376;23.768;2023-10-19T09:15:27;93226.91;;;11.41;80.81
64402;BME280;50724;42.376;23.768;2023-10-19T09:18:29;93224.84;;;11.76;77.44
64402;BME280;50724;42.376;23.768;2023-10-19T09:21:30;93225.50;;;11.61;77.72
64402;BME280;50724;42.376;23.768;2023-10-19T09:24:36;93225.84;;;12.05;75.21
64402;BME280;50724;42.376;23.768;2023-10-19T09:27:37;93232.94;;;12.50;72.73
64402;BME280;50724;42.376;23.768;2023-10-19T09:30:38;93232.03;;;12.88;73.53
64402;BME280;50724;42.376;23.768;2023-10-19T09:33:45;93225.50;;;13.07;71.95
64402;BME280;50724;42.376;23.768;2023-10-19T09:36:46;93230.31;;;12.50;72.81
64402;BME280;50724;42.376;23.768;2023-10-19T09:39:46;93223.25;;;12.59;72.57
64402;BME280;50724;42.376;23.768;2023-10-19T09:42:49;93211.66;;;12.45;70.93
64402;BME280;50724;42.376;23.768;2023-10-19T09:45:56;93213.84;;;12.41;72.71
64402;BME280;50724;42.376;23.768;2023-10-19T09:48:59;93215.63;;;12.64;73.49
64402;BME280;50724;42.376;23.768;2023-10-19T09:51:59;93219.13;;;12.79;72.47
64402;BME280;50724;42.376;23.768;2023-10-19T09:55:22;93218.25;;;12.86;71.24
64402;BME280;50724;42.376;23.768;2023-10-19T09:58:33;93205.16;;;13.53;69.25
64402;BME280;50724;42.376;23.768;2023-10-19T10:02:04;93199.63;;;13.77;66.82
64402;BME280;50724;42.376;23.768;2023-10-19T10:05:04;93191.78;;;14.13;66.67
64402;BME280;50724;42.376;23.768;2023-10-19T10:08:42;93184.00;;;14.05;66.18
64402;BME280;50724;42.376;23.768;2023-10-19T10:11:42;93167.25;;;13.91;67.73
64402;BME280;50724;42.376;23.768;2023-10-19T10:17:58;93146.50;;;14.53;68.64
64402;BME280;50724;42.376;23.768;2023-10-19T10:21:15;93124.06;;;14.85;66.36
64402;BME280;50724;42.376;23.768;2023-10-19T10:24:16;93114.66;;;14.97;63.36
64402;BME280;50724;42.376;23.768;2023-10-19T10:27:18;93114.03;;;15.29;62.21
64402;BME280;50724;42.376;23.768;2023-10-19T10:30:20;93112.66;;;15.33;59.74
64402;BME280;50724;42.376;23.768;2023-10-19T10:36:59;93112.28;;;15.70;59.37
64402;BME280;50724;42.376;23.768;2023-10-19T10:40:08;93108.81;;;15.70;59.82
64402;BME280;50724;42.376;23.768;2023-10-19T10:43:09;93100.44;;;15.60;58.44
64402;BME280;50724;42.376;23.768;2023-10-19T10:46:27;93098.00;;;15.52;60.88
64402;BME280;50724;42.376;23.768;2023-10-19T10:49:29;93098.41;;;15.55;59.77
64402;BME280;50724;42.376;23.768;2023-10-19T10:52:30;93097.94;;;15.45;61.55
64402;BME280;50724;42.376;23.768;2023-10-19T10:55:31;93094.75;;;15.22;61.26
64402;BME280;50724;42.376;23.768;2023-10-19T10:58:32;93090.06;;;15.18;62.84
64402;BME280;50724;42.376;23.768;2023-10-19T11:01:33;93087.56;;;15.44;62.40
64402;BME280;50724;42.376;23.768;2023-10-19T11:04:33;93085.31;;;15.75;61.03
64402;BME280;50724;42.376;23.768;2023-10-19T11:08:02;93079.19;;;15.68;60.47
64402;BME280;50724;42.376;23.768;2023-10-19T11:11:08;93077.81;;;15.38;61.27
64402;BME280;50724;42.376;23.768;2023-10-19T11:14:11;93075.38;;;15.77;60.44
64402;BME280;50724;42.376;23.768;2023-10-19T11:17:13;93078.72;;;16.05;58.09
64402;BME280;50724;42.376;23.768;2023-10-19T11:20:23;93073.66;;;16.17;57.15
64402;BME280;50724;42.376;23.768;2023-10-19T11:23:41;93057.81;;;16.17;57.93
64402;BME280;50724;42.376;23.768;2023-10-19T11:26:42;93056.00;;;16.17;58.45
64402;BME280;50724;42.376;23.768;2023-10-19T11:29:59;93058.91;;;16.62;55.76
64402;BME280;50724;42.376;23.768;2023-10-19T11:33:04;93052.59;;;16.63;54.60
64402;BME280;50724;42.376;23.768;2023-10-19T11:36:06;93060.94;;;16.92;54.00
64402;BME280;50724;42.376;23.768;2023-10-19T11:39:15;93049.53;;;16.98;52.66
64402;BME280;50724;42.376;23.768;2023-10-19T11:42:24;93048.13;;;17.09;52.24
64402;BME280;50724;42.376;23.768;2023-10-19T11:45:24;93050.38;;;16.66;52.17
64402;BME280;50724;42.376;23.768;2023-10-19T11:48:25;93039.97;;;17.04;51.70
64402;BME280;50724;42.376;23.768;2023-10-19T11:51:26;93039.91;;;17.24;49.97
64402;BME280;50724;42.376;23.768;2023-10-19T11:54:26;93033.84;;;17.23;50.04
64402;BME280;50724;42.376;23.768;2023-10-19T11:57:27;93022.19;;;17.44;50.92
64402;BME280;50724;42.376;23.768;2023-10-19T12:00:27;93017.31;;;17.41;51.27
64402;BME280;50724;42.376;23.768;2023-10-19T12:03:34;93016.41;;;17.66;50.16
64402;BME280;50724;42.376;23.768;2023-10-19T12:06:39;93008.28;;;17.61;49.80
64402;BME280;50724;42.376;23.768;2023-10-19T12:09:40;93015.03;;;17.44;50.65
64402;BME280;50724;42.376;23.768;2023-10-19T12:12:45;93010.94;;;17.61;50.36
64402;BME280;50724;42.376;23.768;2023-10-19T12:15:45;92993.47;;;17.60;48.75
64402;BME280;50724;42.376;23.768;2023-10-19T12:18:51;92992.22;;;17.63;48.64
64402;BME280;50724;42.376;23.768;2023-10-19T12:21:51;92997.47;;;17.12;50.14
64402;BME280;50724;42.376;23.768;2023-10-19T12:24:52;92982.41;;;17.12;51.05
64402;BME280;50724;42.376;23.768;2023-10-19T12:27:53;92981.91;;;17.42;49.73
64402;BME280;50724;42.376;23.768;2023-10-19T12:30:53;92985.94;;;17.44;49.13
64402;BME280;50724;42.376;23.768;2023-10-19T12:33:56;92987.41;;;17.53;49.61
64402;BME280;50724;42.376;23.768;2023-10-19T12:36:56;92981.09;;;17.41;50.73
64402;BME280;50724;42.376;23.768;2023-10-19T12:39:58;92982.28;;;17.52;50.40
64402;BME280;50724;42.376;23.768;2023-10-19T12:42:59;92979.03;;;17.50;49.29
64402;BME280;50724;42.376;23.768;2023-10-19T12:46:03;92972.16;;;17.36;50.18
64402;BME280;50724;42.376;23.768;2023-10-19T12:49:04;92983.78;;;17.28;50.54
64402;BME280;50724;42.376;23.768;2023-10-19T12:52:08;92974.53;;;17.57;49.42
64402;BME280;50724;42.376;23.768;2023-10-19T12:55:10;92971.31;;;17.48;48.87
64402;BME280;50724;42.376;23.768;2023-10-19T12:58:11;92969.34;;;17.31;50.42
64402;BME280;50724;42.376;23.768;2023-10-19T13:01:12;92959.03;;;17.09;50.33
64402;BME280;50724;42.376;23.768;2023-10-19T13:04:17;92954.69;;;17.28;49.81
64402;BME280;50724;42.376;23.768;2023-10-19T13:07:18;92952.31;;;17.20;50.55
64402;BME280;50724;42.376;23.768;2023-10-19T13:10:19;92949.13;;;17.49;50.10
64402;BME280;50724;42.376;23.768;2023-10-19T13:13:20;92946.72;;;17.41;50.22
64402;BME280;50724;42.376;23.768;2023-10-19T13:16:24;92943.63;;;17.51;49.96
64402;BME280;50724;42.376;23.768;2023-10-19T13:19:25;92937.44;;;17.26;49.91
64402;BME280;50724;42.376;23.768;2023-10-19T13:22:26;92929.69;;;17.37;50.63
64402;BME280;50724;42.376;23.768;2023-10-19T13:25:27;92915.78;;;17.48;50.71
64402;BME280;50724;42.376;23.768;2023-10-19T13:28:39;92925.53;;;17.48;50.49
64402;BME280;50724;42.376;23.768;2023-10-19T13:31:39;92922.66;;;17.62;49.03
64402;BME280;50724;42.376;23.768;2023-10-19T13:34:40;92921.41;;;17.21;51.20
64402;BME280;50724;42.376;23.768;2023-10-19T13:37:40;92916.69;;;17.29;51.43
64402;BME280;50724;42.376;23.768;2023-10-19T13:40:41;92912.06;;;17.18;52.26
64402;BME280;50724;42.376;23.768;2023-10-19T13:43:42;92918.81;;;17.07;53.37
64402;BME280;50724;42.376;23.768;2023-10-19T13:46:42;92909.59;;;17.23;53.62
64402;BME280;50724;42.376;23.768;2023-10-19T13:49:43;92908.84;;;17.16;54.52
64402;BME280;50724;42.376;23.768;2023-10-19T13:52:43;92911.28;;;17.11;54.83
64402;BME280;50724;42.376;23.768;2023-10-19T13:55:44;92921.31;;;16.89;55.69
64402;BME280;50724;42.376;23.768;2023-10-19T13:58:45;92910.78;;;16.83;55.33
64402;BME280;50724;42.376;23.768;2023-10-19T14:01:47;92917.84;;;16.89;55.46
64402;BME280;50724;42.376;23.768;2023-10-19T14:04:47;92909.44;;;17.11;54.64
64402;BME280;50724;42.376;23.768;2023-10-19T14:07:48;92897.75;;;16.88;54.93
64402;BME280;50724;42.376;23.768;2023-10-19T14:10:48;92897.63;;;16.63;55.68
64402;BME280;50724;42.376;23.768;2023-10-19T14:13:49;92891.56;;;16.43;57.94
64402;BME280;50724;42.376;23.768;2023-10-19T14:16:52;92897.44;;;16.52;57.66
64402;BME280;50724;42.376;23.768;2023-10-19T14:19:52;92889.94;;;16.35;58.56
64402;BME280;50724;42.376;23.768;2023-10-19T14:22:53;92893.19;;;16.18;59.62
64402;BME280;50724;42.376;23.768;2023-10-19T14:25:56;92897.06;;;15.89;61.23
64402;BME280;50724;42.376;23.768;2023-10-19T14:28:56;92889.97;;;15.70;62.17
64402;BME280;50724;42.376;23.768;2023-10-19T14:31:57;92886.06;;;15.46;63.22
64402;BME280;50724;42.376;23.768;2023-10-19T14:34:58;92887.41;;;15.29;63.84
64402;BME280;50724;42.376;23.768;2023-10-19T14:37:59;92884.09;;;14.94;65.13
64402;BME280;50724;42.376;23.768;2023-10-19T14:41:01;92882.91;;;15.03;65.13
64402;BME280;50724;42.376;23.768;2023-10-19T14:44:01;92880.03;;;14.92;65.93
64402;BME280;50724;42.376;23.768;2023-10-19T14:47:03;92876.56;;;14.91;65.76
64402;BME280;50724;42.376;23.768;2023-10-19T14:50:04;92876.63;;;15.04;65.78
64402;BME280;50724;42.376;23.768;2023-10-19T14:53:06;92882.75;;;15.18;65.22
64402;BME280;50724;42.376;23.768;2023-10-19T14:56:06;92885.91;;;15.00;65.95
64402;BME280;50724;42.376;23.768;2023-10-19T14:59:08;92883.72;;;15.04;66.21
64402;BME280;50724;42.376;23.768;2023-10-19T15:02:08;92882.28;;;14.95;65.90
64402;BME280;50724;42.376;23.768;2023-10-19T15:05:12;92886.44;;;14.76;66.24
64402;BME280;50724;42.376;23.768;2023-10-19T15:08:19;92883.53;;;14.58;66.44
64402;BME280;50724;42.376;23.768;2023-10-19T15:11:20;92877.66;;;14.28;68.32
64402;BME280;50724;42.376;23.768;2023-10-19T15:14:22;92884.25;;;14.11;69.08
64402;BME280;50724;42.376;23.768;2023-10-19T15:17:25;92887.34;;;13.94;69.88
64402;BME280;50724;42.376;23.768;2023-10-19T15:20:27;92899.66;;;13.65;70.57
64402;BME280;50724;42.376;23.768;2023-10-19T15:23:27;92901.69;;;13.42;71.35
64402;BME280;50724;42.376;23.768;2023-10-19T15:26:29;92907.41;;;12.95;73.42
64402;BME280;50724;42.376;23.768;2023-10-19T15:29:29;92907.84;;;12.63;75.47
64402;BME280;50724;42.376;23.768;2023-10-19T15:32:30;92912.00;;;12.28;79.62
64402;BME280;50724;42.376;23.768;2023-10-19T15:35:31;92917.41;;;12.12;82.75
64402;BME280;50724;42.376;23.768;2023-10-19T15:38:31;92922.38;;;11.93;84.92
64402;BME280;50724;42.376;23.768;2023-10-19T15:41:32;92918.28;;;11.53;86.43
64402;BME280;50724;42.376;23.768;2023-10-19T15:44:32;92930.69;;;11.36;86.21
64402;BME280;50724;42.376;23.768;2023-10-19T15:47:33;92925.91;;;11.17;88.08
64402;BME280;50724;42.376;23.768;2023-10-19T15:50:34;92928.97;;;10.98;89.16
64402;BME280;50724;42.376;23.768;2023-10-19T15:53:35;92926.41;;;10.59;92.60
64402;BME280;50724;42.376;23.768;2023-10-19T15:56:35;92932.38;;;10.76;92.39
64402;BME280;50724;42.376;23.768;2023-10-19T15:59:36;92944.06;;;10.57;90.97
64402;BME280;50724;42.376;23.768;2023-10-19T16:02:36;92952.63;;;10.43;94.05
64402;BME280;50724;42.376;23.768;2023-10-19T16:05:37;92950.03;;;10.27;95.32
64402;BME280;50724;42.376;23.768;2023-10-19T16:08:37;92942.88;;;10.05;96.46